sensor_id;sensor_type;location;lat;lon;timestamp;temperature;humidity
5578;DHT22;2811;51.900;10.734;2022-12-18T00:01:24;-7.60;99.90
5578;DHT22;2811;51.900;10.734;2022-12-18T00:03:53;-7.60;99.90
5578;DHT22;2811;51.900;10.734;2022-12-18T00:06:21;-7.60;99.90
5578;DHT22;2811;51.900;10.734;2022-12-18T00:08:50;-7.60;99.90
5578;DHT22;2811;51.900;10.734;2022-12-18T00:11:19;-7.70;99.90
5578;DHT22;2811;51.900;10.734;2022-12-18T00:13:46;-7.70;99.90
5578;DHT22;2811;51.900;10.734;2022-12-18T00:16:16;-7.60;99.90
5578;DHT22;2811;51.900;10.734;2022-12-18T00:18:46;-7.80;99.90
5578;DHT22;2811;51.900;10.734;2022-12-18T00:21:13;-7.70;99.90
5578;DHT22;2811;51.900;10.734;2022-12-18T00:23:42;-7.90;99.90
5578;DHT22;2811;51.900;10.734;2022-12-18T00:26:12;-7.80;99.90
5578;DHT22;2811;51.900;10.734;2022-12-18T00:28:40;-7.70;99.90
5578;DHT22;2811;51.900;10.734;2022-12-18T00:31:08;-7.60;99.90
5578;DHT22;2811;51.900;10.734;2022-12-18T00:33:36;-7.60;99.90
5578;DHT22;2811;51.900;10.734;2022-12-18T00:36:04;-7.60;99.90
5578;DHT22;2811;51.900;10.734;2022-12-18T00:38:32;-7.60;99.90
5578;DHT22;2811;51.900;10.734;2022-12-18T00:41:00;-7.70;99.90
5578;DHT22;2811;51.900;10.734;2022-12-18T00:43:28;-7.70;99.90
5578;DHT22;2811;51.900;10.734;2022-12-18T00:45:54;-7.80;99.90
5578;DHT22;2811;51.900;10.734;2022-12-18T00:48:21;-7.80;99.90
5578;DHT22;2811;51.900;10.734;2022-12-18T00:50:49;-7.90;99.90
5578;DHT22;2811;51.900;10.734;2022-12-18T00:53:16;-8.00;99.90
5578;DHT22;2811;51.900;10.734;2022-12-18T00:55:44;-8.10;99.90
5578;DHT22;2811;51.900;10.734;2022-12-18T00:58:12;-8.10;99.90
5578;DHT22;2811;51.900;10.734;2022-12-18T01:00:41;-8.10;99.90
5578;DHT22;2811;51.900;10.734;2022-12-18T01:03:08;-8.00;99.90
5578;DHT22;2811;51.900;10.734;2022-12-18T01:05:39;-8.00;99.90
5578;DHT22;2811;51.900;10.734;2022-12-18T01:08:06;-7.90;99.90
5578;DHT22;2811;51.900;10.734;2022-12-18T01:10:33;-7.90;99.90
5578;DHT22;2811;51.900;10.734;2022-12-18T01:12:59;-7.80;99.90
5578;DHT22;2811;51.900;10.734;2022-12-18T01:15:26;-7.70;99.90
5578;DHT22;2811;51.900;10.734;2022-12-18T01:17:54;-7.70;99.90
5578;DHT22;2811;51.900;10.734;2022-12-18T01:20:21;-7.70;99.90
5578;DHT22;2811;51.900;10.734;2022-12-18T01:22:47;-7.70;99.90
5578;DHT22;2811;51.900;10.734;2022-12-18T01:25:14;-7.70;99.90
5578;DHT22;2811;51.900;10.734;2022-12-18T01:27:41;-7.80;99.90
5578;DHT22;2811;51.900;10.734;2022-12-18T01:30:09;-7.90;99.90
5578;DHT22;2811;51.900;10.734;2022-12-18T01:32:35;-8.10;99.90
5578;DHT22;2811;51.900;10.734;2022-12-18T01:35:05;-8.20;99.90
5578;DHT22;2811;51.900;10.734;2022-12-18T01:37:32;-8.20;99.90
5578;DHT22;2811;51.900;10.734;2022-12-18T01:39:58;-8.10;99.90
5578;DHT22;2811;51.900;10.734;2022-12-18T01:42:25;-8.00;99.90
5578;DHT22;2811;51.900;10.734;2022-12-18T01:45:01;-8.10;99.90
5578;DHT22;2811;51.900;10.734;2022-12-18T01:47:34;-8.00;99.90
5578;DHT22;2811;51.900;10.734;2022-12-18T01:50:07;-8.00;99.90
5578;DHT22;2811;51.900;10.734;2022-12-18T01:52:34;-7.90;99.90
5578;DHT22;2811;51.900;10.734;2022-12-18T01:55:05;-7.90;99.90
5578;DHT22;2811;51.900;10.734;2022-12-18T01:57:32;-8.10;99.90
5578;DHT22;2811;51.900;10.734;2022-12-18T02:00:01;-8.10;99.90
5578;DHT22;2811;51.900;10.734;2022-12-18T02:02:30;-8.20;99.90
5578;DHT22;2811;51.900;10.734;2022-12-18T02:04:58;-8.10;99.90
5578;DHT22;2811;51.900;10.734;2022-12-18T02:07:35;-8.20;99.90
5578;DHT22;2811;51.900;10.734;2022-12-18T02:10:06;-8.30;99.90
5578;DHT22;2811;51.900;10.734;2022-12-18T02:12:42;-8.30;99.90
5578;DHT22;2811;51.900;10.734;2022-12-18T02:15:13;-8.20;99.90
5578;DHT22;2811;51.900;10.734;2022-12-18T02:17:45;-8.10;99.90
5578;DHT22;2811;51.900;10.734;2022-12-18T02:20:18;-8.10;99.90
5578;DHT22;2811;51.900;10.734;2022-12-18T02:22:59;-8.10;99.90
5578;DHT22;2811;51.900;10.734;2022-12-18T02:25:40;-8.10;99.90
5578;DHT22;2811;51.900;10.734;2022-12-18T02:28:13;-8.00;99.90
5578;DHT22;2811;51.900;10.734;2022-12-18T02:30:42;-8.10;99.90
5578;DHT22;2811;51.900;10.734;2022-12-18T02:33:11;-8.10;99.90
5578;DHT22;2811;51.900;10.734;2022-12-18T02:35:40;-8.20;99.90
5578;DHT22;2811;51.900;10.734;2022-12-18T02:38:08;-8.20;99.90
5578;DHT22;2811;51.900;10.734;2022-12-18T02:40:36;-8.20;99.90
5578;DHT22;2811;51.900;10.734;2022-12-18T02:43:07;-8.30;99.90
5578;DHT22;2811;51.900;10.734;2022-12-18T02:45:35;-8.30;99.90
5578;DHT22;2811;51.900;10.734;2022-12-18T02:48:02;-8.30;99.90
5578;DHT22;2811;51.900;10.734;2022-12-18T02:50:34;-8.30;99.90
5578;DHT22;2811;51.900;10.734;2022-12-18T02:53:08;-8.30;99.90
5578;DHT22;2811;51.900;10.734;2022-12-18T02:55:48;-8.20;99.90
5578;DHT22;2811;51.900;10.734;2022-12-18T02:58:24;-8.40;99.90
5578;DHT22;2811;51.900;10.734;2022-12-18T03:00:58;-8.50;99.90
5578;DHT22;2811;51.900;10.734;2022-12-18T03:03:29;-8.60;99.90
5578;DHT22;2811;51.900;10.734;2022-12-18T03:06:01;-8.50;99.90
5578;DHT22;2811;51.900;10.734;2022-12-18T03:08:34;-8.50;99.90
5578;DHT22;2811;51.900;10.734;2022-12-18T03:11:05;-8.50;99.90
5578;DHT22;2811;51.900;10.734;2022-12-18T03:13:35;-8.40;99.90
5578;DHT22;2811;51.900;10.734;2022-12-18T03:16:06;-8.40;99.90
5578;DHT22;2811;51.900;10.734;2022-12-18T03:18:37;-8.40;99.90
5578;DHT22;2811;51.900;10.734;2022-12-18T03:21:06;-8.40;99.90
5578;DHT22;2811;51.900;10.734;2022-12-18T03:23:36;-8.40;99.90
5578;DHT22;2811;51.900;10.734;2022-12-18T03:26:09;-8.40;99.90
5578;DHT22;2811;51.900;10.734;2022-12-18T03:28:39;-8.30;99.90
5578;DHT22;2811;51.900;10.734;2022-12-18T03:31:11;-8.40;99.90
5578;DHT22;2811;51.900;10.734;2022-12-18T03:36:11;-8.40;99.90
5578;DHT22;2811;51.900;10.734;2022-12-18T03:38:38;-8.40;99.90
5578;DHT22;2811;51.900;10.734;2022-12-18T03:41:09;-8.40;99.90
5578;DHT22;2811;51.900;10.734;2022-12-18T03:43:43;-8.50;99.90
5578;DHT22;2811;51.900;10.734;2022-12-18T03:46:20;-8.50;99.90
5578;DHT22;2811;51.900;10.734;2022-12-18T03:48:54;-8.40;99.90
5578;DHT22;2811;51.900;10.734;2022-12-18T03:51:26;-8.30;99.90
5578;DHT22;2811;51.900;10.734;2022-12-18T03:53:57;-8.40;99.90
5578;DHT22;2811;51.900;10.734;2022-12-18T03:56:28;-8.40;99.90
5578;DHT22;2811;51.900;10.734;2022-12-18T03:58:57;-8.30;99.90
5578;DHT22;2811;51.900;10.734;2022-12-18T04:01:30;-8.40;99.90
5578;DHT22;2811;51.900;10.734;2022-12-18T04:03:59;-8.50;99.90
5578;DHT22;2811;51.900;10.734;2022-12-18T04:06:28;-8.50;99.90
5578;DHT22;2811;51.900;10.734;2022-12-18T04:08:56;-8.50;99.90
5578;DHT22;2811;51.900;10.734;2022-12-18T04:11:23;-8.50;99.90
5578;DHT22;2811;51.900;10.734;2022-12-18T04:13:50;-8.50;99.90
5578;DHT22;2811;51.900;10.734;2022-12-18T04:16:21;-8.40;99.90
5578;DHT22;2811;51.900;10.734;2022-12-18T04:18:49;-8.40;99.90
5578;DHT22;2811;51.900;10.734;2022-12-18T04:21:16;-8.40;99.90
5578;DHT22;2811;51.900;10.734;2022-12-18T04:23:43;-8.50;99.90
5578;DHT22;2811;51.900;10.734;2022-12-18T04:26:10;-8.50;99.90
5578;DHT22;2811;51.900;10.734;2022-12-18T04:28:36;-8.60;99.90
5578;DHT22;2811;51.900;10.734;2022-12-18T04:31:03;-8.50;99.90
5578;DHT22;2811;51.900;10.734;2022-12-18T04:33:30;-8.50;99.90
5578;DHT22;2811;51.900;10.734;2022-12-18T04:35:58;-8.60;99.90
5578;DHT22;2811;51.900;10.734;2022-12-18T04:38:25;-8.60;99.90
5578;DHT22;2811;51.900;10.734;2022-12-18T04:40:52;-8.60;99.90
5578;DHT22;2811;51.900;10.734;2022-12-18T04:43:19;-8.70;99.90
5578;DHT22;2811;51.900;10.734;2022-12-18T04:45:46;-8.80;99.90
5578;DHT22;2811;51.900;10.734;2022-12-18T04:48:12;-8.80;99.90
5578;DHT22;2811;51.900;10.734;2022-12-18T04:50:39;-8.80;99.90
5578;DHT22;2811;51.900;10.734;2022-12-18T04:53:07;-8.70;99.90
5578;DHT22;2811;51.900;10.734;2022-12-18T04:55:34;-8.70;99.90
5578;DHT22;2811;51.900;10.734;2022-12-18T04:58:01;-8.70;99.90
5578;DHT22;2811;51.900;10.734;2022-12-18T05:00:27;-8.70;99.90
5578;DHT22;2811;51.900;10.734;2022-12-18T05:02:54;-8.70;99.90
5578;DHT22;2811;51.900;10.734;2022-12-18T05:05:21;-8.60;99.90
5578;DHT22;2811;51.900;10.734;2022-12-18T05:07:48;-8.70;99.90
5578;DHT22;2811;51.900;10.734;2022-12-18T05:10:16;-8.70;99.90
5578;DHT22;2811;51.900;10.734;2022-12-18T05:12:43;-8.70;99.90
5578;DHT22;2811;51.900;10.734;2022-12-18T05:15:36;-8.80;99.90
5578;DHT22;2811;51.900;10.734;2022-12-18T05:18:04;-8.80;99.90
5578;DHT22;2811;51.900;10.734;2022-12-18T05:20:31;-8.80;99.90
5578;DHT22;2811;51.900;10.734;2022-12-18T05:22:58;-8.90;99.90
5578;DHT22;2811;51.900;10.734;2022-12-18T05:25:25;-9.10;99.90
5578;DHT22;2811;51.900;10.734;2022-12-18T05:27:51;-9.20;99.90
5578;DHT22;2811;51.900;10.734;2022-12-18T05:30:18;-9.40;99.90
5578;DHT22;2811;51.900;10.734;2022-12-18T05:32:46;-9.40;99.90
5578;DHT22;2811;51.900;10.734;2022-12-18T05:35:13;-9.40;99.90
5578;DHT22;2811;51.900;10.734;2022-12-18T05:37:40;-9.30;99.90
5578;DHT22;2811;51.900;10.734;2022-12-18T05:40:08;-9.30;99.90
5578;DHT22;2811;51.900;10.734;2022-12-18T05:42:35;-9.20;99.90
5578;DHT22;2811;51.900;10.734;2022-12-18T05:45:02;-9.20;99.90
5578;DHT22;2811;51.900;10.734;2022-12-18T05:47:28;-8.90;99.90
5578;DHT22;2811;51.900;10.734;2022-12-18T05:49:57;-9.20;99.90
5578;DHT22;2811;51.900;10.734;2022-12-18T05:52:24;-9.20;99.90
5578;DHT22;2811;51.900;10.734;2022-12-18T05:54:51;-9.10;99.90
5578;DHT22;2811;51.900;10.734;2022-12-18T05:57:17;-9.10;99.90
5578;DHT22;2811;51.900;10.734;2022-12-18T05:59:44;-9.30;99.90
5578;DHT22;2811;51.900;10.734;2022-12-18T06:02:11;-9.30;99.90
5578;DHT22;2811;51.900;10.734;2022-12-18T06:04:37;-9.40;99.90
5578;DHT22;2811;51.900;10.734;2022-12-18T06:07:06;-9.40;99.90
5578;DHT22;2811;51.900;10.734;2022-12-18T06:09:32;-9.40;99.90
5578;DHT22;2811;51.900;10.734;2022-12-18T06:11:59;-9.40;99.90
5578;DHT22;2811;51.900;10.734;2022-12-18T06:14:26;-9.50;99.90
5578;DHT22;2811;51.900;10.734;2022-12-18T06:16:53;-9.40;99.90
5578;DHT22;2811;51.900;10.734;2022-12-18T06:19:20;-9.50;99.90
5578;DHT22;2811;51.900;10.734;2022-12-18T06:21:47;-9.50;99.90
5578;DHT22;2811;51.900;10.734;2022-12-18T06:24:16;-9.50;99.90
5578;DHT22;2811;51.900;10.734;2022-12-18T06:26:42;-9.50;99.90
5578;DHT22;2811;51.900;10.734;2022-12-18T06:29:09;-9.40;99.90
5578;DHT22;2811;51.900;10.734;2022-12-18T06:31:36;-9.40;99.90
5578;DHT22;2811;51.900;10.734;2022-12-18T06:34:04;-9.40;99.90
5578;DHT22;2811;51.900;10.734;2022-12-18T06:36:31;-9.30;99.90
5578;DHT22;2811;51.900;10.734;2022-12-18T06:38:58;-9.30;99.90
5578;DHT22;2811;51.900;10.734;2022-12-18T06:41:27;-9.20;99.90
5578;DHT22;2811;51.900;10.734;2022-12-18T06:43:53;-9.20;99.90
5578;DHT22;2811;51.900;10.734;2022-12-18T06:46:20;-9.30;99.90
5578;DHT22;2811;51.900;10.734;2022-12-18T06:48:48;-9.30;99.90
5578;DHT22;2811;51.900;10.734;2022-12-18T06:51:17;-9.30;99.90
5578;DHT22;2811;51.900;10.734;2022-12-18T06:53:44;-9.30;99.90
5578;DHT22;2811;51.900;10.734;2022-12-18T06:56:11;-9.20;99.90
5578;DHT22;2811;51.900;10.734;2022-12-18T06:58:39;-9.20;99.90
5578;DHT22;2811;51.900;10.734;2022-12-18T07:01:09;-9.20;99.90
5578;DHT22;2811;51.900;10.734;2022-12-18T07:03:37;-9.20;99.90
5578;DHT22;2811;51.900;10.734;2022-12-18T07:06:04;-9.20;99.90
5578;DHT22;2811;51.900;10.734;2022-12-18T07:08:32;-9.20;99.90
5578;DHT22;2811;51.900;10.734;2022-12-18T07:10:59;-9.10;99.90
5578;DHT22;2811;51.900;10.734;2022-12-18T07:13:25;-9.10;99.90
5578;DHT22;2811;51.900;10.734;2022-12-18T07:15:53;-9.10;99.90
5578;DHT22;2811;51.900;10.734;2022-12-18T07:18:20;-9.00;99.90
5578;DHT22;2811;51.900;10.734;2022-12-18T07:20:47;-9.10;99.90
5578;DHT22;2811;51.900;10.734;2022-12-18T07:23:14;-9.40;99.90
5578;DHT22;2811;51.900;10.734;2022-12-18T07:25:41;-9.40;99.90
5578;DHT22;2811;51.900;10.734;2022-12-18T07:28:07;-9.40;99.90
5578;DHT22;2811;51.900;10.734;2022-12-18T07:30:37;-9.40;99.90
5578;DHT22;2811;51.900;10.734;2022-12-18T07:33:05;-9.40;99.90
5578;DHT22;2811;51.900;10.734;2022-12-18T07:35:32;-9.40;99.90
5578;DHT22;2811;51.900;10.734;2022-12-18T07:38:02;-9.50;99.90
5578;DHT22;2811;51.900;10.734;2022-12-18T07:40:29;-9.50;99.90
5578;DHT22;2811;51.900;10.734;2022-12-18T07:42:55;-9.60;99.90
5578;DHT22;2811;51.900;10.734;2022-12-18T07:45:22;-9.50;99.90
5578;DHT22;2811;51.900;10.734;2022-12-18T07:47:49;-9.50;99.90
5578;DHT22;2811;51.900;10.734;2022-12-18T07:50:18;-9.40;99.90
5578;DHT22;2811;51.900;10.734;2022-12-18T07:52:45;-9.30;99.90
5578;DHT22;2811;51.900;10.734;2022-12-18T07:55:12;-9.30;99.90
5578;DHT22;2811;51.900;10.734;2022-12-18T07:57:39;-9.20;99.90
5578;DHT22;2811;51.900;10.734;2022-12-18T08:00:07;-9.20;99.90
5578;DHT22;2811;51.900;10.734;2022-12-18T08:02:34;-9.00;99.90
5578;DHT22;2811;51.900;10.734;2022-12-18T08:05:01;-9.10;99.90
5578;DHT22;2811;51.900;10.734;2022-12-18T08:07:29;-9.10;99.90
5578;DHT22;2811;51.900;10.734;2022-12-18T08:09:56;-9.00;99.90
5578;DHT22;2811;51.900;10.734;2022-12-18T08:12:23;-9.00;99.90
5578;DHT22;2811;51.900;10.734;2022-12-18T08:14:50;-8.90;99.90
5578;DHT22;2811;51.900;10.734;2022-12-18T08:17:17;-8.80;99.90
5578;DHT22;2811;51.900;10.734;2022-12-18T08:19:45;-8.70;99.90
5578;DHT22;2811;51.900;10.734;2022-12-18T08:22:12;-8.60;99.90
5578;DHT22;2811;51.900;10.734;2022-12-18T08:24:41;-8.60;99.90
5578;DHT22;2811;51.900;10.734;2022-12-18T08:27:08;-8.50;99.90
5578;DHT22;2811;51.900;10.734;2022-12-18T08:29:34;-8.30;99.90
5578;DHT22;2811;51.900;10.734;2022-12-18T08:32:01;-8.20;99.90
5578;DHT22;2811;51.900;10.734;2022-12-18T08:34:28;-8.10;99.90
5578;DHT22;2811;51.900;10.734;2022-12-18T08:36:55;-7.90;99.90
5578;DHT22;2811;51.900;10.734;2022-12-18T08:39:22;-7.70;99.90
5578;DHT22;2811;51.900;10.734;2022-12-18T08:41:50;-7.50;99.90
5578;DHT22;2811;51.900;10.734;2022-12-18T08:44:30;-7.40;99.90
5578;DHT22;2811;51.900;10.734;2022-12-18T08:47:07;-7.30;99.90
5578;DHT22;2811;51.900;10.734;2022-12-18T08:49:34;-7.00;99.90
5578;DHT22;2811;51.900;10.734;2022-12-18T08:52:01;-6.90;99.90
5578;DHT22;2811;51.900;10.734;2022-12-18T08:54:29;-6.80;99.90
5578;DHT22;2811;51.900;10.734;2022-12-18T08:56:57;-6.50;99.90
5578;DHT22;2811;51.900;10.734;2022-12-18T08:59:24;-6.30;99.90
5578;DHT22;2811;51.900;10.734;2022-12-18T09:01:53;-6.30;99.90
5578;DHT22;2811;51.900;10.734;2022-12-18T09:04:20;-6.10;99.90
5578;DHT22;2811;51.900;10.734;2022-12-18T09:06:47;-6.20;99.90
5578;DHT22;2811;51.900;10.734;2022-12-18T09:09:14;-6.00;99.90
5578;DHT22;2811;51.900;10.734;2022-12-18T09:11:41;-6.30;99.90
5578;DHT22;2811;51.900;10.734;2022-12-18T09:14:10;-6.30;99.90
5578;DHT22;2811;51.900;10.734;2022-12-18T09:16:37;-6.00;99.90
5578;DHT22;2811;51.900;10.734;2022-12-18T09:19:05;-5.70;99.90
5578;DHT22;2811;51.900;10.734;2022-12-18T09:21:33;-5.90;99.90
5578;DHT22;2811;51.900;10.734;2022-12-18T09:24:00;-5.80;99.90
5578;DHT22;2811;51.900;10.734;2022-12-18T09:26:27;-5.70;99.90
5578;DHT22;2811;51.900;10.734;2022-12-18T09:28:54;-5.80;99.90
5578;DHT22;2811;51.900;10.734;2022-12-18T09:31:23;-5.60;99.90
5578;DHT22;2811;51.900;10.734;2022-12-18T09:33:50;-5.70;99.90
5578;DHT22;2811;51.900;10.734;2022-12-18T09:36:18;-5.70;99.90
5578;DHT22;2811;51.900;10.734;2022-12-18T09:38:45;-5.70;99.90
5578;DHT22;2811;51.900;10.734;2022-12-18T09:41:27;-5.40;99.90
5578;DHT22;2811;51.900;10.734;2022-12-18T09:44:00;-5.20;99.90
5578;DHT22;2811;51.900;10.734;2022-12-18T09:46:32;-4.90;99.90
5578;DHT22;2811;51.900;10.734;2022-12-18T09:49:03;-4.70;99.90
5578;DHT22;2811;51.900;10.734;2022-12-18T09:51:36;-4.60;99.90
5578;DHT22;2811;51.900;10.734;2022-12-18T09:54:06;-4.50;99.90
5578;DHT22;2811;51.900;10.734;2022-12-18T09:56:36;-4.60;99.90
5578;DHT22;2811;51.900;10.734;2022-12-18T09:59:05;-4.50;99.90
5578;DHT22;2811;51.900;10.734;2022-12-18T10:01:33;-4.50;99.90
5578;DHT22;2811;51.900;10.734;2022-12-18T10:04:00;-4.50;99.90
5578;DHT22;2811;51.900;10.734;2022-12-18T10:06:29;-4.30;99.90
5578;DHT22;2811;51.900;10.734;2022-12-18T10:09:03;-4.50;99.90
5578;DHT22;2811;51.900;10.734;2022-12-18T10:11:38;-4.50;99.90
5578;DHT22;2811;51.900;10.734;2022-12-18T10:14:11;-4.40;99.90
5578;DHT22;2811;51.900;10.734;2022-12-18T10:16:51;-4.00;99.90
5578;DHT22;2811;51.900;10.734;2022-12-18T10:19:32;-4.00;99.90
5578;DHT22;2811;51.900;10.734;2022-12-18T10:22:11;-3.90;99.90
5578;DHT22;2811;51.900;10.734;2022-12-18T10:24:42;-3.70;99.90
5578;DHT22;2811;51.900;10.734;2022-12-18T10:27:14;-3.70;99.90
5578;DHT22;2811;51.900;10.734;2022-12-18T10:29:42;-3.40;99.90
5578;DHT22;2811;51.900;10.734;2022-12-18T10:32:15;-3.30;99.90
5578;DHT22;2811;51.900;10.734;2022-12-18T10:34:46;-3.10;99.90
5578;DHT22;2811;51.900;10.734;2022-12-18T10:37:17;-3.10;99.90
5578;DHT22;2811;51.900;10.734;2022-12-18T10:39:45;-2.80;99.90
5578;DHT22;2811;51.900;10.734;2022-12-18T10:42:17;-2.60;99.90
5578;DHT22;2811;51.900;10.734;2022-12-18T10:44:44;-2.50;99.90
5578;DHT22;2811;51.900;10.734;2022-12-18T10:47:14;-2.40;99.90
5578;DHT22;2811;51.900;10.734;2022-12-18T10:49:48;-2.30;99.90
5578;DHT22;2811;51.900;10.734;2022-12-18T10:52:19;-2.20;99.90
5578;DHT22;2811;51.900;10.734;2022-12-18T10:54:49;-2.10;99.90
5578;DHT22;2811;51.900;10.734;2022-12-18T10:57:28;-2.20;99.90
5578;DHT22;2811;51.900;10.734;2022-12-18T10:59:56;-2.20;99.90
5578;DHT22;2811;51.900;10.734;2022-12-18T11:02:28;-2.00;99.90
5578;DHT22;2811;51.900;10.734;2022-12-18T11:04:59;-1.70;99.90
5578;DHT22;2811;51.900;10.734;2022-12-18T11:07:48;-1.60;99.90
5578;DHT22;2811;51.900;10.734;2022-12-18T11:10:17;-1.50;99.90
5578;DHT22;2811;51.900;10.734;2022-12-18T11:12:44;-1.50;99.90
5578;DHT22;2811;51.900;10.734;2022-12-18T11:15:15;-1.70;99.90
5578;DHT22;2811;51.900;10.734;2022-12-18T11:17:43;-1.70;99.90
5578;DHT22;2811;51.900;10.734;2022-12-18T11:20:21;-1.60;99.90
5578;DHT22;2811;51.900;10.734;2022-12-18T11:22:57;-1.50;99.90
5578;DHT22;2811;51.900;10.734;2022-12-18T11:25:24;-1.30;99.90
5578;DHT22;2811;51.900;10.734;2022-12-18T11:27:56;-1.10;99.90
5578;DHT22;2811;51.900;10.734;2022-12-18T11:30:26;-1.00;99.90
5578;DHT22;2811;51.900;10.734;2022-12-18T11:32:57;-0.90;99.90
5578;DHT22;2811;51.900;10.734;2022-12-18T11:35:33;-0.70;99.90
5578;DHT22;2811;51.900;10.734;2022-12-18T11:38:06;-0.60;99.90
5578;DHT22;2811;51.900;10.734;2022-12-18T11:40:38;-0.50;99.90
5578;DHT22;2811;51.900;10.734;2022-12-18T11:43:09;-0.40;99.90
5578;DHT22;2811;51.900;10.734;2022-12-18T11:45:41;-0.30;99.90
5578;DHT22;2811;51.900;10.734;2022-12-18T11:48:16;-0.20;99.90
5578;DHT22;2811;51.900;10.734;2022-12-18T11:50:48;0.10;99.90
5578;DHT22;2811;51.900;10.734;2022-12-18T11:53:18;0.20;99.90
5578;DHT22;2811;51.900;10.734;2022-12-18T11:55:58;0.20;99.90
5578;DHT22;2811;51.900;10.734;2022-12-18T11:58:44;0.00;99.90
5578;DHT22;2811;51.900;10.734;2022-12-18T12:01:19;0.00;99.90
5578;DHT22;2811;51.900;10.734;2022-12-18T12:06:58;-0.10;99.90
5578;DHT22;2811;51.900;10.734;2022-12-18T12:09:34;-0.20;99.90
5578;DHT22;2811;51.900;10.734;2022-12-18T12:12:18;-0.20;99.90
5578;DHT22;2811;51.900;10.734;2022-12-18T12:14:52;-0.30;99.90
5578;DHT22;2811;51.900;10.734;2022-12-18T12:17:28;-0.30;99.90
5578;DHT22;2811;51.900;10.734;2022-12-18T12:20:04;-0.30;99.90
5578;DHT22;2811;51.900;10.734;2022-12-18T12:22:39;-0.20;99.90
5578;DHT22;2811;51.900;10.734;2022-12-18T12:25:21;-0.10;99.90
5578;DHT22;2811;51.900;10.734;2022-12-18T12:27:56;0.00;99.90
5578;DHT22;2811;51.900;10.734;2022-12-18T12:30:32;0.00;99.90
5578;DHT22;2811;51.900;10.734;2022-12-18T12:33:09;0.10;99.90
5578;DHT22;2811;51.900;10.734;2022-12-18T12:35:47;0.00;99.90
5578;DHT22;2811;51.900;10.734;2022-12-18T12:38:19;-0.10;99.90
5578;DHT22;2811;51.900;10.734;2022-12-18T12:40:52;-0.20;99.90
5578;DHT22;2811;51.900;10.734;2022-12-18T12:43:30;-0.30;99.90
5578;DHT22;2811;51.900;10.734;2022-12-18T12:46:00;-0.50;99.90
5578;DHT22;2811;51.900;10.734;2022-12-18T12:48:36;-0.60;99.90
5578;DHT22;2811;51.900;10.734;2022-12-18T12:51:12;-0.70;99.90
5578;DHT22;2811;51.900;10.734;2022-12-18T12:53:41;-0.80;99.90
5578;DHT22;2811;51.900;10.734;2022-12-18T12:56:11;-1.00;99.90
5578;DHT22;2811;51.900;10.734;2022-12-18T12:58:45;-1.10;99.90
5578;DHT22;2811;51.900;10.734;2022-12-18T13:01:20;-1.20;99.90
5578;DHT22;2811;51.900;10.734;2022-12-18T13:03:56;-1.20;99.90
5578;DHT22;2811;51.900;10.734;2022-12-18T13:06:36;-1.30;99.90
5578;DHT22;2811;51.900;10.734;2022-12-18T13:09:04;-1.40;99.90
5578;DHT22;2811;51.900;10.734;2022-12-18T13:11:35;-1.50;99.90
5578;DHT22;2811;51.900;10.734;2022-12-18T13:14:22;-1.50;99.90
5578;DHT22;2811;51.900;10.734;2022-12-18T13:16:49;-1.50;99.90
5578;DHT22;2811;51.900;10.734;2022-12-18T13:19:22;-1.60;99.90
5578;DHT22;2811;51.900;10.734;2022-12-18T13:21:53;-1.70;99.90
5578;DHT22;2811;51.900;10.734;2022-12-18T13:24:24;-1.80;99.90
5578;DHT22;2811;51.900;10.734;2022-12-18T13:26:53;-1.80;99.90
5578;DHT22;2811;51.900;10.734;2022-12-18T13:29:42;-1.80;99.90
5578;DHT22;2811;51.900;10.734;2022-12-18T13:32:22;-1.90;99.90
5578;DHT22;2811;51.900;10.734;2022-12-18T13:37:54;-1.90;99.90
5578;DHT22;2811;51.900;10.734;2022-12-18T13:40:55;-1.80;99.90
5578;DHT22;2811;51.900;10.734;2022-12-18T13:43:45;-1.80;99.90
5578;DHT22;2811;51.900;10.734;2022-12-18T13:46:24;-1.70;99.90
5578;DHT22;2811;51.900;10.734;2022-12-18T13:48:58;-1.70;99.90
5578;DHT22;2811;51.900;10.734;2022-12-18T13:51:26;-1.80;99.90
5578;DHT22;2811;51.900;10.734;2022-12-18T13:53:56;-1.80;99.90
5578;DHT22;2811;51.900;10.734;2022-12-18T13:56:25;-1.80;99.90
5578;DHT22;2811;51.900;10.734;2022-12-18T13:59:16;-1.80;99.90
5578;DHT22;2811;51.900;10.734;2022-12-18T14:01:46;-1.80;99.90
5578;DHT22;2811;51.900;10.734;2022-12-18T14:04:19;-1.70;99.90
5578;DHT22;2811;51.900;10.734;2022-12-18T14:06:48;-1.70;99.90
5578;DHT22;2811;51.900;10.734;2022-12-18T14:09:19;-1.70;99.90
5578;DHT22;2811;51.900;10.734;2022-12-18T14:11:47;-1.70;99.90
5578;DHT22;2811;51.900;10.734;2022-12-18T14:14:17;-1.70;99.90
5578;DHT22;2811;51.900;10.734;2022-12-18T14:16:44;-1.70;99.90
5578;DHT22;2811;51.900;10.734;2022-12-18T14:19:14;-1.80;99.90
5578;DHT22;2811;51.900;10.734;2022-12-18T14:21:46;-1.70;99.90
5578;DHT22;2811;51.900;10.734;2022-12-18T14:24:14;-1.80;99.90
5578;DHT22;2811;51.900;10.734;2022-12-18T14:26:42;-1.90;99.90
5578;DHT22;2811;51.900;10.734;2022-12-18T14:29:21;-1.90;99.90
5578;DHT22;2811;51.900;10.734;2022-12-18T14:32:05;-1.90;99.90
5578;DHT22;2811;51.900;10.734;2022-12-18T14:34:32;-1.80;99.90
5578;DHT22;2811;51.900;10.734;2022-12-18T14:36:59;-1.80;99.90
5578;DHT22;2811;51.900;10.734;2022-12-18T14:39:26;-1.70;99.90
5578;DHT22;2811;51.900;10.734;2022-12-18T14:41:52;-1.60;99.90
5578;DHT22;2811;51.900;10.734;2022-12-18T14:44:20;-1.60;99.90
5578;DHT22;2811;51.900;10.734;2022-12-18T14:46:48;-1.50;99.90
5578;DHT22;2811;51.900;10.734;2022-12-18T14:49:21;-1.50;99.90
5578;DHT22;2811;51.900;10.734;2022-12-18T14:51:49;-1.50;99.90
5578;DHT22;2811;51.900;10.734;2022-12-18T14:54:18;-1.50;99.90
5578;DHT22;2811;51.900;10.734;2022-12-18T14:56:47;-1.40;99.90
5578;DHT22;2811;51.900;10.734;2022-12-18T14:59:16;-1.30;99.90
5578;DHT22;2811;51.900;10.734;2022-12-18T15:01:49;-1.30;99.90
5578;DHT22;2811;51.900;10.734;2022-12-18T15:04:26;-1.30;99.90
5578;DHT22;2811;51.900;10.734;2022-12-18T15:07:05;-1.00;99.90
5578;DHT22;2811;51.900;10.734;2022-12-18T15:09:33;-0.70;99.90
5578;DHT22;2811;51.900;10.734;2022-12-18T15:12:01;-0.70;99.90
5578;DHT22;2811;51.900;10.734;2022-12-18T15:14:34;-0.70;99.90
5578;DHT22;2811;51.900;10.734;2022-12-18T15:17:05;-0.80;99.90
5578;DHT22;2811;51.900;10.734;2022-12-18T15:19:37;-0.90;99.90
5578;DHT22;2811;51.900;10.734;2022-12-18T15:22:04;-1.00;99.90
5578;DHT22;2811;51.900;10.734;2022-12-18T15:24:39;-1.20;99.90
5578;DHT22;2811;51.900;10.734;2022-12-18T15:27:23;-1.40;99.90
5578;DHT22;2811;51.900;10.734;2022-12-18T15:32:43;-1.70;99.90
5578;DHT22;2811;51.900;10.734;2022-12-18T15:35:15;-1.70;99.90
5578;DHT22;2811;51.900;10.734;2022-12-18T15:37:42;-1.70;99.90
5578;DHT22;2811;51.900;10.734;2022-12-18T15:40:13;-1.70;99.90
5578;DHT22;2811;51.900;10.734;2022-12-18T15:42:40;-1.60;99.90
5578;DHT22;2811;51.900;10.734;2022-12-18T15:45:24;-1.80;99.90
5578;DHT22;2811;51.900;10.734;2022-12-18T15:47:52;-1.80;99.90
5578;DHT22;2811;51.900;10.734;2022-12-18T15:50:19;-1.80;99.90
5578;DHT22;2811;51.900;10.734;2022-12-18T15:52:47;-1.90;99.90
5578;DHT22;2811;51.900;10.734;2022-12-18T15:55:16;-1.80;99.90
5578;DHT22;2811;51.900;10.734;2022-12-18T15:58:01;-1.70;99.90
5578;DHT22;2811;51.900;10.734;2022-12-18T16:00:27;-1.60;99.90
5578;DHT22;2811;51.900;10.734;2022-12-18T16:02:55;-1.60;99.90
5578;DHT22;2811;51.900;10.734;2022-12-18T16:05:23;-1.40;99.90
5578;DHT22;2811;51.900;10.734;2022-12-18T16:07:50;-1.40;99.90
5578;DHT22;2811;51.900;10.734;2022-12-18T16:10:17;-1.40;99.90
5578;DHT22;2811;51.900;10.734;2022-12-18T16:12:44;-1.30;99.90
5578;DHT22;2811;51.900;10.734;2022-12-18T16:15:13;-1.30;99.90
5578;DHT22;2811;51.900;10.734;2022-12-18T16:17:41;-1.30;99.90